sensor_id;sensor_type;location;lat;lon;timestamp;pressure;altitude;pressure_sealevel;temperature;humidity
71151;BME280;59071;42.138;24.768;2023-04-04T00:00:08;98372.94;;;10.08;100.00
71151;BME280;59071;42.138;24.768;2023-04-04T00:02:33;98367.16;;;10.11;100.00
71151;BME280;59071;42.138;24.768;2023-04-04T00:04:58;98372.69;;;10.22;100.00
71151;BME280;59071;42.138;24.768;2023-04-04T00:07:24;98362.75;;;10.29;100.00
71151;BME280;59071;42.138;24.768;2023-04-04T00:09:49;98360.06;;;10.41;100.00
71151;BME280;59071;42.138;24.768;2023-04-04T00:12:15;98345.06;;;10.23;100.00
71151;BME280;59071;42.138;24.768;2023-04-04T00:14:40;98330.97;;;10.34;100.00
71151;BME280;59071;42.138;24.768;2023-04-04T00:17:06;98341.13;;;10.37;100.00
71151;BME280;59071;42.138;24.768;2023-04-04T00:19:31;98333.31;;;10.18;100.00
71151;BME280;59071;42.138;24.768;2023-04-04T00:21:56;98335.53;;;9.98;100.00
71151;BME280;59071;42.138;24.768;2023-04-04T00:24:21;98327.72;;;10.20;100.00
71151;BME280;59071;42.138;24.768;2023-04-04T00:26:47;98327.19;;;10.06;100.00
71151;BME280;59071;42.138;24.768;2023-04-04T00:29:12;98317.75;;;9.87;100.00
71151;BME280;59071;42.138;24.768;2023-04-04T00:31:37;98327.31;;;10.00;100.00
71151;BME280;59071;42.138;24.768;2023-04-04T00:34:03;98322.19;;;10.22;100.00
71151;BME280;59071;42.138;24.768;2023-04-04T00:36:28;98319.31;;;10.11;100.00
71151;BME280;59071;42.138;24.768;2023-04-04T00:38:53;98335.28;;;10.11;100.00
71151;BME280;59071;42.138;24.768;2023-04-04T00:41:19;98334.09;;;10.31;100.00
71151;BME280;59071;42.138;24.768;2023-04-04T00:43:44;98332.69;;;10.28;100.00
71151;BME280;59071;42.138;24.768;2023-04-04T00:46:10;98338.25;;;10.27;100.00
71151;BME280;59071;42.138;24.768;2023-04-04T00:48:39;98330.22;;;9.98;100.00
71151;BME280;59071;42.138;24.768;2023-04-04T00:51:04;98325.22;;;10.13;100.00
71151;BME280;59071;42.138;24.768;2023-04-04T00:53:30;98334.44;;;10.23;100.00
71151;BME280;59071;42.138;24.768;2023-04-04T00:55:56;98313.97;;;10.35;100.00
71151;BME280;59071;42.138;24.768;2023-04-04T00:58:21;98318.25;;;10.36;100.00
71151;BME280;59071;42.138;24.768;2023-04-04T01:00:48;98317.97;;;10.49;100.00
71151;BME280;59071;42.138;24.768;2023-04-04T01:03:14;98311.50;;;10.45;100.00
71151;BME280;59071;42.138;24.768;2023-04-04T01:05:39;98312.97;;;10.53;100.00
71151;BME280;59071;42.138;24.768;2023-04-04T01:08:05;98304.03;;;10.30;100.00
71151;BME280;59071;42.138;24.768;2023-04-04T01:10:31;98308.25;;;10.43;100.00
71151;BME280;59071;42.138;24.768;2023-04-04T01:12:57;98312.53;;;10.44;100.00
71151;BME280;59071;42.138;24.768;2023-04-04T01:15:22;98317.41;;;10.47;100.00
71151;BME280;59071;42.138;24.768;2023-04-04T01:17:47;98313.34;;;10.45;100.00
71151;BME280;59071;42.138;24.768;2023-04-04T01:20:14;98311.59;;;10.50;100.00
71151;BME280;59071;42.138;24.768;2023-04-04T01:22:40;98306.31;;;10.39;100.00
71151;BME280;59071;42.138;24.768;2023-04-04T01:25:06;98300.66;;;10.35;100.00
71151;BME280;59071;42.138;24.768;2023-04-04T01:27:32;98296.91;;;10.48;100.00
71151;BME280;59071;42.138;24.768;2023-04-04T01:29:57;98296.59;;;10.44;100.00
71151;BME280;59071;42.138;24.768;2023-04-04T01:37:47;98291.84;;;10.46;100.00
71151;BME280;59071;42.138;24.768;2023-04-04T01:40:20;98298.00;;;10.35;100.00
71151;BME280;59071;42.138;24.768;2023-04-04T01:42:46;98289.19;;;10.46;100.00
71151;BME280;59071;42.138;24.768;2023-04-04T01:45:12;98295.44;;;10.40;100.00
71151;BME280;59071;42.138;24.768;2023-04-04T01:47:40;98290.16;;;10.28;100.00
71151;BME280;59071;42.138;24.768;2023-04-04T01:50:06;98271.91;;;10.20;100.00
71151;BME280;59071;42.138;24.768;2023-04-04T01:52:32;98283.34;;;10.32;100.00
71151;BME280;59071;42.138;24.768;2023-04-04T01:54:57;98292.25;;;10.14;100.00
71151;BME280;59071;42.138;24.768;2023-04-04T01:57:22;98286.38;;;10.12;100.00
71151;BME280;59071;42.138;24.768;2023-04-04T01:59:47;98277.53;;;10.24;100.00
71151;BME280;59071;42.138;24.768;2023-04-04T02:02:12;98286.09;;;10.26;100.00
71151;BME280;59071;42.138;24.768;2023-04-04T02:04:38;98272.75;;;10.09;100.00
71151;BME280;59071;42.138;24.768;2023-04-04T02:07:03;98270.19;;;10.14;100.00
71151;BME280;59071;42.138;24.768;2023-04-04T02:09:28;98284.81;;;10.00;100.00
71151;BME280;59071;42.138;24.768;2023-04-04T02:11:54;98260.00;;;10.11;100.00
71151;BME280;59071;42.138;24.768;2023-04-04T02:14:20;98265.34;;;10.11;100.00
71151;BME280;59071;42.138;24.768;2023-04-04T02:16:45;98281.53;;;9.97;100.00
71151;BME280;59071;42.138;24.768;2023-04-04T02:19:10;98275.47;;;10.26;100.00
71151;BME280;59071;42.138;24.768;2023-04-04T02:21:37;98267.06;;;10.17;100.00
71151;BME280;59071;42.138;24.768;2023-04-04T02:24:02;98269.91;;;10.27;100.00
71151;BME280;59071;42.138;24.768;2023-04-04T02:26:27;98274.88;;;10.24;100.00
71151;BME280;59071;42.138;24.768;2023-04-04T02:28:52;98272.16;;;10.18;100.00
71151;BME280;59071;42.138;24.768;2023-04-04T02:31:18;98267.97;;;10.23;100.00
71151;BME280;59071;42.138;24.768;2023-04-04T02:33:43;98276.22;;;10.50;100.00
71151;BME280;59071;42.138;24.768;2023-04-04T02:36:08;98276.34;;;10.72;100.00
71151;BME280;59071;42.138;24.768;2023-04-04T02:38:34;98272.69;;;10.61;100.00
71151;BME280;59071;42.138;24.768;2023-04-04T02:40:59;98271.69;;;10.50;100.00
71151;BME280;59071;42.138;24.768;2023-04-04T02:43:24;98285.31;;;10.54;100.00
71151;BME280;59071;42.138;24.768;2023-04-04T02:45:50;98266.13;;;10.52;100.00
71151;BME280;59071;42.138;24.768;2023-04-04T02:48:15;98288.47;;;10.51;100.00
71151;BME280;59071;42.138;24.768;2023-04-04T02:50:40;98285.84;;;10.39;100.00
71151;BME280;59071;42.138;24.768;2023-04-04T02:53:06;98267.38;;;10.78;100.00
71151;BME280;59071;42.138;24.768;2023-04-04T02:55:31;98268.91;;;10.74;100.00
71151;BME280;59071;42.138;24.768;2023-04-04T02:57:57;98277.31;;;10.83;100.00
71151;BME280;59071;42.138;24.768;2023-04-04T03:00:22;98272.63;;;10.73;100.00
71151;BME280;59071;42.138;24.768;2023-04-04T03:02:54;98293.13;;;10.89;100.00
71151;BME280;59071;42.138;24.768;2023-04-04T03:05:19;98276.88;;;10.57;100.00
71151;BME280;59071;42.138;24.768;2023-04-04T03:07:45;98280.50;;;10.68;100.00
71151;BME280;59071;42.138;24.768;2023-04-04T03:10:10;98276.97;;;10.79;100.00
71151;BME280;59071;42.138;24.768;2023-04-04T03:12:35;98275.69;;;10.65;100.00
71151;BME280;59071;42.138;24.768;2023-04-04T03:15:01;98269.63;;;10.69;100.00
71151;BME280;59071;42.138;24.768;2023-04-04T03:17:27;98277.44;;;10.59;100.00
71151;BME280;59071;42.138;24.768;2023-04-04T03:19:53;98280.84;;;10.88;100.00
71151;BME280;59071;42.138;24.768;2023-04-04T03:22:18;98272.38;;;10.74;100.00
71151;BME280;59071;42.138;24.768;2023-04-04T03:24:43;98285.53;;;10.81;100.00
71151;BME280;59071;42.138;24.768;2023-04-04T03:27:09;98277.28;;;10.66;100.00
71151;BME280;59071;42.138;24.768;2023-04-04T03:29:35;98269.06;;;10.67;100.00
71151;BME280;59071;42.138;24.768;2023-04-04T03:32:00;98278.66;;;10.68;100.00
71151;BME280;59071;42.138;24.768;2023-04-04T03:34:26;98289.06;;;10.87;100.00
71151;BME280;59071;42.138;24.768;2023-04-04T03:36:52;98294.34;;;10.82;100.00
71151;BME280;59071;42.138;24.768;2023-04-04T03:39:17;98303.13;;;10.82;100.00
71151;BME280;59071;42.138;24.768;2023-04-04T03:41:43;98312.22;;;10.86;100.00
71151;BME280;59071;42.138;24.768;2023-04-04T03:44:08;98302.13;;;10.71;100.00
71151;BME280;59071;42.138;24.768;2023-04-04T03:46:33;98273.03;;;10.65;100.00
71151;BME280;59071;42.138;24.768;2023-04-04T03:48:59;98297.88;;;10.87;100.00
71151;BME280;59071;42.138;24.768;2023-04-04T03:51:24;98296.69;;;10.95;100.00
71151;BME280;59071;42.138;24.768;2023-04-04T03:53:50;98304.41;;;11.13;100.00
71151;BME280;59071;42.138;24.768;2023-04-04T03:56:15;98299.09;;;10.80;100.00
71151;BME280;59071;42.138;24.768;2023-04-04T03:58:41;98306.19;;;10.74;100.00
71151;BME280;59071;42.138;24.768;2023-04-04T04:01:06;98312.84;;;10.76;100.00
71151;BME280;59071;42.138;24.768;2023-04-04T04:03:31;98316.59;;;10.92;100.00
71151;BME280;59071;42.138;24.768;2023-04-04T04:05:57;98320.78;;;11.05;100.00
71151;BME280;59071;42.138;24.768;2023-04-04T04:08:23;98313.44;;;10.95;100.00
71151;BME280;59071;42.138;24.768;2023-04-04T04:10:48;98313.13;;;10.92;100.00
71151;BME280;59071;42.138;24.768;2023-04-04T04:13:13;98320.44;;;10.85;100.00
71151;BME280;59071;42.138;24.768;2023-04-04T04:15:38;98316.47;;;10.70;100.00
71151;BME280;59071;42.138;24.768;2023-04-04T04:18:04;98317.78;;;10.85;100.00
71151;BME280;59071;42.138;24.768;2023-04-04T04:20:29;98292.47;;;10.82;100.00
71151;BME280;59071;42.138;24.768;2023-04-04T04:22:54;98317.84;;;10.73;100.00
71151;BME280;59071;42.138;24.768;2023-04-04T04:25:20;98310.94;;;10.72;100.00
71151;BME280;59071;42.138;24.768;2023-04-04T04:27:45;98317.22;;;10.83;100.00
71151;BME280;59071;42.138;24.768;2023-04-04T04:30:10;98312.75;;;10.71;100.00
71151;BME280;59071;42.138;24.768;2023-04-04T04:32:37;98320.69;;;10.54;100.00
71151;BME280;59071;42.138;24.768;2023-04-04T04:35:02;98321.25;;;10.56;100.00
71151;BME280;59071;42.138;24.768;2023-04-04T04:37:27;98313.78;;;10.99;100.00
71151;BME280;59071;42.138;24.768;2023-04-04T04:39:53;98328.31;;;11.08;100.00
71151;BME280;59071;42.138;24.768;2023-04-04T04:42:18;98325.50;;;10.69;100.00
71151;BME280;59071;42.138;24.768;2023-04-04T04:44:43;98325.47;;;10.98;100.00
71151;BME280;59071;42.138;24.768;2023-04-04T04:47:09;98320.53;;;10.90;100.00
71151;BME280;59071;42.138;24.768;2023-04-04T04:49:34;98326.75;;;10.95;100.00
71151;BME280;59071;42.138;24.768;2023-04-04T04:51:59;98342.53;;;10.68;100.00
71151;BME280;59071;42.138;24.768;2023-04-04T04:54:26;98327.69;;;10.72;100.00
71151;BME280;59071;42.138;24.768;2023-04-04T04:56:51;98330.53;;;10.83;100.00
71151;BME280;59071;42.138;24.768;2023-04-04T04:59:17;98325.56;;;11.03;100.00
71151;BME280;59071;42.138;24.768;2023-04-04T05:01:42;98332.56;;;10.92;100.00
71151;BME280;59071;42.138;24.768;2023-04-04T05:04:07;98321.84;;;10.87;100.00
71151;BME280;59071;42.138;24.768;2023-04-04T05:06:33;98319.50;;;10.91;100.00
71151;BME280;59071;42.138;24.768;2023-04-04T05:08:58;98331.22;;;11.07;100.00
71151;BME280;59071;42.138;24.768;2023-04-04T05:11:23;98333.41;;;10.81;100.00
71151;BME280;59071;42.138;24.768;2023-04-04T05:13:50;98336.28;;;10.91;100.00
71151;BME280;59071;42.138;24.768;2023-04-04T05:16:15;98323.44;;;10.88;100.00
71151;BME280;59071;42.138;24.768;2023-04-04T05:18:40;98318.47;;;11.09;100.00
71151;BME280;59071;42.138;24.768;2023-04-04T05:21:05;98318.53;;;10.97;100.00
71151;BME280;59071;42.138;24.768;2023-04-04T05:23:31;98321.19;;;10.80;100.00
71151;BME280;59071;42.138;24.768;2023-04-04T05:25:56;98325.19;;;10.83;100.00
71151;BME280;59071;42.138;24.768;2023-04-04T05:28:22;98321.94;;;10.64;100.00
71151;BME280;59071;42.138;24.768;2023-04-04T05:30:47;98331.03;;;10.51;100.00
71151;BME280;59071;42.138;24.768;2023-04-04T05:33:13;98317.84;;;10.44;100.00
71151;BME280;59071;42.138;24.768;2023-04-04T05:35:38;98327.78;;;10.49;100.00
71151;BME280;59071;42.138;24.768;2023-04-04T05:38:05;98326.63;;;10.73;100.00
71151;BME280;59071;42.138;24.768;2023-04-04T05:40:30;98316.97;;;10.84;100.00
71151;BME280;59071;42.138;24.768;2023-04-04T05:42:56;98316.09;;;10.79;100.00
71151;BME280;59071;42.138;24.768;2023-04-04T05:45:22;98324.88;;;10.79;100.00
71151;BME280;59071;42.138;24.768;2023-04-04T05:47:47;98327.00;;;10.94;100.00
71151;BME280;59071;42.138;24.768;2023-04-04T05:50:12;98336.09;;;10.98;100.00
71151;BME280;59071;42.138;24.768;2023-04-04T05:52:38;98331.97;;;10.90;100.00
71151;BME280;59071;42.138;24.768;2023-04-04T05:55:03;98342.25;;;10.99;100.00
71151;BME280;59071;42.138;24.768;2023-04-04T05:57:28;98336.31;;;11.08;100.00
71151;BME280;59071;42.138;24.768;2023-04-04T05:59:54;98344.31;;;10.80;100.00
71151;BME280;59071;42.138;24.768;2023-04-04T06:02:19;98332.16;;;10.84;100.00
71151;BME280;59071;42.138;24.768;2023-04-04T06:04:44;98338.91;;;10.74;100.00
71151;BME280;59071;42.138;24.768;2023-04-04T06:07:10;98342.69;;;10.79;100.00
71151;BME280;59071;42.138;24.768;2023-04-04T06:09:35;98348.63;;;10.98;100.00
71151;BME280;59071;42.138;24.768;2023-04-04T06:12:01;98353.72;;;10.99;100.00
71151;BME280;59071;42.138;24.768;2023-04-04T06:14:28;98346.13;;;11.08;100.00
71151;BME280;59071;42.138;24.768;2023-04-04T06:16:53;98350.53;;;11.02;100.00
71151;BME280;59071;42.138;24.768;2023-04-04T06:19:19;98356.22;;;10.77;100.00
71151;BME280;59071;42.138;24.768;2023-04-04T06:21:44;98356.00;;;10.79;100.00
71151;BME280;59071;42.138;24.768;2023-04-04T06:24:10;98359.91;;;10.88;100.00
71151;BME280;59071;42.138;24.768;2023-04-04T06:26:35;98351.91;;;10.88;100.00
71151;BME280;59071;42.138;24.768;2023-04-04T06:29:01;98353.22;;;10.85;100.00
71151;BME280;59071;42.138;24.768;2023-04-04T06:31:27;98347.31;;;11.00;100.00
71151;BME280;59071;42.138;24.768;2023-04-04T06:33:52;98343.66;;;11.18;100.00
71151;BME280;59071;42.138;24.768;2023-04-04T06:36:18;98348.63;;;11.14;100.00
71151;BME280;59071;42.138;24.768;2023-04-04T06:38:43;98360.50;;;11.07;100.00
71151;BME280;59071;42.138;24.768;2023-04-04T06:41:08;98356.03;;;10.95;100.00
71151;BME280;59071;42.138;24.768;2023-04-04T06:43:33;98345.22;;;10.85;100.00
71151;BME280;59071;42.138;24.768;2023-04-04T06:45:59;98357.56;;;10.91;100.00
71151;BME280;59071;42.138;24.768;2023-04-04T06:48:24;98360.06;;;10.98;100.00
71151;BME280;59071;42.138;24.768;2023-04-04T06:50:50;98351.84;;;11.00;100.00
71151;BME280;59071;42.138;24.768;2023-04-04T06:53:15;98348.09;;;11.29;100.00
71151;BME280;59071;42.138;24.768;2023-04-04T06:55:41;98350.47;;;10.97;100.00
71151;BME280;59071;42.138;24.768;2023-04-04T06:58:06;98343.84;;;11.00;100.00
71151;BME280;59071;42.138;24.768;2023-04-04T07:00:31;98347.41;;;11.05;100.00
71151;BME280;59071;42.138;24.768;2023-04-04T07:02:57;98347.00;;;10.80;100.00
71151;BME280;59071;42.138;24.768;2023-04-04T07:05:25;98348.78;;;10.91;100.00
71151;BME280;59071;42.138;24.768;2023-04-04T07:07:51;98350.06;;;11.05;100.00
71151;BME280;59071;42.138;24.768;2023-04-04T07:10:19;98356.06;;;11.29;100.00
71151;BME280;59071;42.138;24.768;2023-04-04T07:12:45;98349.06;;;11.23;100.00
71151;BME280;59071;42.138;24.768;2023-04-04T07:15:10;98362.06;;;11.20;100.00
71151;BME280;59071;42.138;24.768;2023-04-04T07:17:36;98347.91;;;11.19;100.00
71151;BME280;59071;42.138;24.768;2023-04-04T07:20:01;98353.00;;;11.21;100.00
71151;BME280;59071;42.138;24.768;2023-04-04T07:22:27;98370.09;;;11.25;100.00
71151;BME280;59071;42.138;24.768;2023-04-04T07:24:52;98366.94;;;11.11;100.00
71151;BME280;59071;42.138;24.768;2023-04-04T07:27:18;98366.47;;;11.14;100.00
71151;BME280;59071;42.138;24.768;2023-04-04T07:29:44;98372.38;;;11.16;100.00
71151;BME280;59071;42.138;24.768;2023-04-04T07:32:09;98371.25;;;11.46;100.00
71151;BME280;59071;42.138;24.768;2023-04-04T07:34:34;98372.88;;;11.47;100.00
71151;BME280;59071;42.138;24.768;2023-04-04T07:37:00;98373.25;;;11.55;100.00
71151;BME280;59071;42.138;24.768;2023-04-04T07:39:25;98379.31;;;11.34;100.00
71151;BME280;59071;42.138;24.768;2023-04-04T07:41:51;98371.75;;;11.43;100.00
71151;BME280;59071;42.138;24.768;2023-04-04T07:44:16;98383.66;;;11.57;100.00
71151;BME280;59071;42.138;24.768;2023-04-04T07:46:41;98372.59;;;11.82;99.68
71151;BME280;59071;42.138;24.768;2023-04-04T07:49:07;98379.13;;;11.91;98.62
71151;BME280;59071;42.138;24.768;2023-04-04T07:51:32;98379.47;;;11.95;97.43
71151;BME280;59071;42.138;24.768;2023-04-04T07:53:59;98379.97;;;11.92;96.73
71151;BME280;59071;42.138;24.768;2023-04-04T07:56:25;98386.25;;;11.69;98.29
71151;BME280;59071;42.138;24.768;2023-04-04T07:58:51;98377.78;;;11.55;99.40
71151;BME280;59071;42.138;24.768;2023-04-04T08:01:16;98381.72;;;11.86;99.80
71151;BME280;59071;42.138;24.768;2023-04-04T08:03:41;98381.22;;;12.06;98.06
71151;BME280;59071;42.138;24.768;2023-04-04T08:06:07;98378.47;;;12.01;97.05
71151;BME280;59071;42.138;24.768;2023-04-04T08:08:32;98371.25;;;12.19;96.00
71151;BME280;59071;42.138;24.768;2023-04-04T08:10:57;98367.44;;;12.15;95.72
71151;BME280;59071;42.138;24.768;2023-04-04T08:13:23;98367.84;;;12.23;95.91
71151;BME280;59071;42.138;24.768;2023-04-04T08:15:48;98377.06;;;12.16;95.91
71151;BME280;59071;42.138;24.768;2023-04-04T08:18:13;98379.81;;;12.21;94.06
71151;BME280;59071;42.138;24.768;2023-04-04T08:20:39;98377.63;;;12.18;95.56
71151;BME280;59071;42.138;24.768;2023-04-04T08:23:04;98384.72;;;12.29;94.89
71151;BME280;59071;42.138;24.768;2023-04-04T08:25:30;98390.28;;;12.27;94.68
71151;BME280;59071;42.138;24.768;2023-04-04T08:27:55;98388.81;;;12.59;94.23
71151;BME280;59071;42.138;24.768;2023-04-04T08:30:21;98393.31;;;12.58;93.35
71151;BME280;59071;42.138;24.768;2023-04-04T08:32:46;98385.84;;;12.55;93.66
71151;BME280;59071;42.138;24.768;2023-04-04T08:35:12;98383.41;;;12.54;93.84
71151;BME280;59071;42.138;24.768;2023-04-04T08:37:42;98391.22;;;12.16;94.31
71151;BME280;59071;42.138;24.768;2023-04-04T08:40:07;98389.78;;;12.08;94.98
71151;BME280;59071;42.138;24.768;2023-04-04T08:42:33;98387.28;;;12.02;96.25
71151;BME280;59071;42.138;24.768;2023-04-04T08:45:00;98394.09;;;12.54;94.37
71151;BME280;59071;42.138;24.768;2023-04-04T08:47:28;98389.53;;;12.54;93.53
71151;BME280;59071;42.138;24.768;2023-04-04T08:49:55;98391.72;;;12.57;93.01
71151;BME280;59071;42.138;24.768;2023-04-04T08:52:23;98393.84;;;12.55;93.14
71151;BME280;59071;42.138;24.768;2023-04-04T08:54:51;98400.16;;;12.98;91.06
71151;BME280;59071;42.138;24.768;2023-04-04T08:57:18;98400.31;;;12.86;91.36
71151;BME280;59071;42.138;24.768;2023-04-04T08:59:43;98399.59;;;12.69;92.04
71151;BME280;59071;42.138;24.768;2023-04-04T09:04:34;98406.09;;;12.56;92.44
71151;BME280;59071;42.138;24.768;2023-04-04T09:06:59;98402.63;;;12.33;94.17
71151;BME280;59071;42.138;24.768;2023-04-04T09:09:31;98403.88;;;12.48;93.35
71151;BME280;59071;42.138;24.768;2023-04-04T09:12:00;98401.81;;;12.77;92.77
71151;BME280;59071;42.138;24.768;2023-04-04T09:14:26;98407.31;;;12.93;92.31
71151;BME280;59071;42.138;24.768;2023-04-04T09:16:54;98404.25;;;13.06;90.68
71151;BME280;59071;42.138;24.768;2023-04-04T09:19:19;98409.50;;;12.96;90.45
71151;BME280;59071;42.138;24.768;2023-04-04T09:21:45;98407.91;;;12.95;88.56
71151;BME280;59071;42.138;24.768;2023-04-04T09:24:11;98395.25;;;12.63;91.18
71151;BME280;59071;42.138;24.768;2023-04-04T09:26:46;98397.78;;;13.02;90.21
71151;BME280;59071;42.138;24.768;2023-04-04T09:29:12;98399.75;;;12.84;90.30
71151;BME280;59071;42.138;24.768;2023-04-04T09:31:37;98412.88;;;12.86;89.89
71151;BME280;59071;42.138;24.768;2023-04-04T09:34:03;98406.81;;;12.96;90.04
71151;BME280;59071;42.138;24.768;2023-04-04T09:36:28;98402.41;;;13.34;89.16
71151;BME280;59071;42.138;24.768;2023-04-04T09:38:55;98408.91;;;13.43;88.19
71151;BME280;59071;42.138;24.768;2023-04-04T09:41:21;98408.03;;;13.69;85.85
71151;BME280;59071;42.138;24.768;2023-04-04T09:43:46;98402.00;;;13.47;86.47
71151;BME280;59071;42.138;24.768;2023-04-04T09:46:12;98412.28;;;13.33;87.46
71151;BME280;59071;42.138;24.768;2023-04-04T09:48:39;98411.22;;;13.34;87.36
71151;BME280;59071;42.138;24.768;2023-04-04T09:51:12;98415.25;;;13.69;86.74
71151;BME280;59071;42.138;24.768;2023-04-04T09:53:37;98410.50;;;13.44;85.02
71151;BME280;59071;42.138;24.768;2023-04-04T09:56:04;98415.13;;;13.26;86.84
71151;BME280;59071;42.138;24.768;2023-04-04T09:58:30;98412.31;;;13.38;86.04
71151;BME280;59071;42.138;24.768;2023-04-04T10:01:00;98413.28;;;13.27;86.78
71151;BME280;59071;42.138;24.768;2023-04-04T10:03:26;98409.22;;;13.46;85.96
71151;BME280;59071;42.138;24.768;2023-04-04T10:06:02;98414.84;;;13.50;85.60
71151;BME280;59071;42.138;24.768;2023-04-04T10:08:31;98411.44;;;13.60;84.61
71151;BME280;59071;42.138;24.768;2023-04-04T10:10:57;98410.78;;;13.80;84.28
71151;BME280;59071;42.138;24.768;2023-04-04T10:13:27;98412.50;;;13.96;84.23
71151;BME280;59071;42.138;24.768;2023-04-04T10:15:53;98413.53;;;13.53;84.74
71151;BME280;59071;42.138;24.768;2023-04-04T10:18:20;98405.47;;;13.85;83.84
71151;BME280;59071;42.138;24.768;2023-04-04T10:20:46;98400.19;;;13.95;83.10
71151;BME280;59071;42.138;24.768;2023-04-04T10:23:13;98402.41;;;14.03;82.65
71151;BME280;59071;42.138;24.768;2023-04-04T10:25:39;98405.31;;;14.02;82.43
71151;BME280;59071;42.138;24.768;2023-04-04T10:28:04;98401.47;;;14.30;81.93
71151;BME280;59071;42.138;24.768;2023-04-04T10:30:30;98395.50;;;14.13;81.49
71151;BME280;59071;42.138;24.768;2023-04-04T10:33:05;98385.97;;;14.42;80.89
71151;BME280;59071;42.138;24.768;2023-04-04T10:35:31;98387.06;;;14.41;80.94
71151;BME280;59071;42.138;24.768;2023-04-04T10:37:59;98385.22;;;14.52;81.45
71151;BME280;59071;42.138;24.768;2023-04-04T10:40:27;98380.28;;;14.81;77.98
71151;BME280;59071;42.138;24.768;2023-04-04T10:42:55;98377.59;;;14.86;77.63
71151;BME280;59071;42.138;24.768;2023-04-04T10:45:21;98377.34;;;14.93;77.62
71151;BME280;59071;42.138;24.768;2023-04-04T10:47:47;98379.53;;;15.37;76.79
71151;BME280;59071;42.138;24.768;2023-04-04T10:50:12;98376.84;;;15.68;75.70
71151;BME280;59071;42.138;24.768;2023-04-04T10:52:38;98376.31;;;15.51;75.68
71151;BME280;59071;42.138;24.768;2023-04-04T10:55:05;98374.69;;;15.55;76.00
71151;BME280;59071;42.138;24.768;2023-04-04T10:57:39;98377.78;;;16.34;73.05
71151;BME280;59071;42.138;24.768;2023-04-04T11:00:05;98371.66;;;16.18;71.54
71151;BME280;59071;42.138;24.768;2023-04-04T11:02:45;98364.47;;;16.03;73.13
71151;BME280;59071;42.138;24.768;2023-04-04T11:05:56;98369.81;;;16.73;70.21
71151;BME280;59071;42.138;24.768;2023-04-04T11:11:05;98374.13;;;16.69;68.10
71151;BME280;59071;42.138;24.768;2023-04-04T11:19:07;98372.09;;;16.51;67.72
71151;BME280;59071;42.138;24.768;2023-04-04T11:21:08;98371.00;;;16.52;67.97
71151;BME280;59071;42.138;24.768;2023-04-04T11:28:58;98367.50;;;16.56;68.08
71151;BME280;59071;42.138;24.768;2023-04-04T11:31:27;98368.31;;;17.02;66.41
71151;BME280;59071;42.138;24.768;2023-04-04T11:38:59;98363.13;;;16.66;63.52
71151;BME280;59071;42.138;24.768;2023-04-04T11:41:41;98351.28;;;17.16;62.05
71151;BME280;59071;42.138;24.768;2023-04-04T11:44:07;98355.91;;;17.45;61.63
71151;BME280;59071;42.138;24.768;2023-04-04T11:46:33;98361.13;;;16.97;62.24
71151;BME280;59071;42.138;24.768;2023-04-04T11:48:58;98351.91;;;17.08;62.17
71151;BME280;59071;42.138;24.768;2023-04-04T11:51:24;98357.38;;;16.93;61.77
71151;BME280;59071;42.138;24.768;2023-04-04T11:53:49;98362.81;;;16.83;61.23
71151;BME280;59071;42.138;24.768;2023-04-04T11:56:15;98356.13;;;17.19;60.55
71151;BME280;59071;42.138;24.768;2023-04-04T11:58:42;98361.34;;;16.51;63.42
71151;BME280;59071;42.138;24.768;2023-04-04T12:01:10;98365.09;;;17.05;61.90
71151;BME280;59071;42.138;24.768;2023-04-04T12:03:36;98355.38;;;17.09;60.75
71151;BME280;59071;42.138;24.768;2023-04-04T12:06:01;98361.63;;;16.99;59.38
71151;BME280;59071;42.138;24.768;2023-04-04T12:08:27;98359.31;;;16.87;60.52
71151;BME280;59071;42.138;24.768;2023-04-04T12:10:52;98365.59;;;16.57;62.96
71151;BME280;59071;42.138;24.768;2023-04-04T12:13:18;98362.91;;;16.62;63.51
71151;BME280;59071;42.138;24.768;2023-04-04T12:15:43;98364.69;;;16.17;64.80
71151;BME280;59071;42.138;24.768;2023-04-04T12:18:08;98358.75;;;16.25;64.30
71151;BME280;59071;42.138;24.768;2023-04-04T12:20:37;98345.28;;;16.35;64.16
71151;BME280;59071;42.138;24.768;2023-04-04T12:23:04;98359.78;;;16.39;65.82
71151;BME280;59071;42.138;24.768;2023-04-04T12:25:29;98355.59;;;16.13;66.29
71151;BME280;59071;42.138;24.768;2023-04-04T12:27:57;98355.06;;;16.06;68.30
71151;BME280;59071;42.138;24.768;2023-04-04T12:30:23;98364.72;;;16.07;68.33
71151;BME280;59071;42.138;24.768;2023-04-04T12:32:49;98359.94;;;15.88;69.25
71151;BME280;59071;42.138;24.768;2023-04-04T12:35:15;98363.19;;;15.44;72.98
71151;BME280;59071;42.138;24.768;2023-04-04T12:37:59;98373.28;;;14.75;78.04
71151;BME280;59071;42.138;24.768;2023-04-04T12:40:30;98369.38;;;14.40;79.29
71151;BME280;59071;42.138;24.768;2023-04-04T12:42:56;98366.22;;;14.54;77.21
71151;BME280;59071;42.138;24.768;2023-04-04T12:45:21;98375.28;;;14.42;77.72
71151;BME280;59071;42.138;24.768;2023-04-04T12:47:50;98375.16;;;14.12;80.14
71151;BME280;59071;42.138;24.768;2023-04-04T12:50:20;98389.69;;;14.26;81.54
71151;BME280;59071;42.138;24.768;2023-04-04T12:52:46;98382.91;;;14.18;81.80
71151;BME280;59071;42.138;24.768;2023-04-04T12:55:15;98393.53;;;13.98;81.49
71151;BME280;59071;42.138;24.768;2023-04-04T12:57:44;98383.53;;;13.83;82.08
71151;BME280;59071;42.138;24.768;2023-04-04T13:00:10;98389.03;;;13.66;85.53
71151;BME280;59071;42.138;24.768;2023-04-04T13:02:37;98390.00;;;13.22;87.09